sensor_id;sensor_type;location;lat;lon;timestamp;pressure;altitude;pressure_sealevel;temperature;humidity
75681;BME280;64294;49.176;16.626;2023-03-13T00:00:56;99028.81;;;4.14;86.16
75681;BME280;64294;49.176;16.626;2023-03-13T00:03:21;99018.97;;;4.13;86.19
75681;BME280;64294;49.176;16.626;2023-03-13T00:05:47;99025.72;;;4.01;87.59
75681;BME280;64294;49.176;16.626;2023-03-13T00:08:12;99020.16;;;3.95;88.42
75681;BME280;64294;49.176;16.626;2023-03-13T00:10:39;99021.84;;;3.81;88.67
75681;BME280;64294;49.176;16.626;2023-03-13T00:13:06;99027.91;;;3.74;88.70
75681;BME280;64294;49.176;16.626;2023-03-13T00:15:32;99040.28;;;3.73;90.23
75681;BME280;64294;49.176;16.626;2023-03-13T00:17:57;99029.88;;;3.68;90.58
75681;BME280;64294;49.176;16.626;2023-03-13T00:20:23;99033.63;;;3.59;90.67
75681;BME280;64294;49.176;16.626;2023-03-13T00:22:48;99032.34;;;3.55;90.84
75681;BME280;64294;49.176;16.626;2023-03-13T00:25:13;99039.34;;;3.45;90.62
75681;BME280;64294;49.176;16.626;2023-03-13T00:27:39;99031.22;;;3.36;91.08
75681;BME280;64294;49.176;16.626;2023-03-13T00:30:04;99034.19;;;3.32;91.08
75681;BME280;64294;49.176;16.626;2023-03-13T00:32:30;99030.13;;;3.27;91.08
75681;BME280;64294;49.176;16.626;2023-03-13T00:34:55;99026.09;;;3.28;91.57
75681;BME280;64294;49.176;16.626;2023-03-13T00:37:21;99014.72;;;3.26;90.96
75681;BME280;64294;49.176;16.626;2023-03-13T00:39:46;99016.25;;;3.27;90.72
75681;BME280;64294;49.176;16.626;2023-03-13T00:42:12;99012.47;;;3.30;92.72
75681;BME280;64294;49.176;16.626;2023-03-13T00:44:37;99013.22;;;3.31;92.43
75681;BME280;64294;49.176;16.626;2023-03-13T00:47:02;99005.88;;;3.28;91.15
75681;BME280;64294;49.176;16.626;2023-03-13T00:49:30;99010.94;;;3.29;91.16
75681;BME280;64294;49.176;16.626;2023-03-13T00:51:55;99009.16;;;3.26;91.31
75681;BME280;64294;49.176;16.626;2023-03-13T00:54:21;99028.84;;;3.23;91.77
75681;BME280;64294;49.176;16.626;2023-03-13T00:56:47;99023.78;;;3.21;92.07
75681;BME280;64294;49.176;16.626;2023-03-13T00:59:13;99013.41;;;3.16;92.12
75681;BME280;64294;49.176;16.626;2023-03-13T01:01:39;99021.19;;;3.12;91.83
75681;BME280;64294;49.176;16.626;2023-03-13T01:04:07;99012.56;;;3.04;92.26
75681;BME280;64294;49.176;16.626;2023-03-13T01:06:35;99009.75;;;2.99;93.76
75681;BME280;64294;49.176;16.626;2023-03-13T01:09:02;99015.75;;;2.97;93.75
75681;BME280;64294;49.176;16.626;2023-03-13T01:11:30;99013.22;;;2.94;93.66
75681;BME280;64294;49.176;16.626;2023-03-13T01:13:59;99017.50;;;2.95;93.51
75681;BME280;64294;49.176;16.626;2023-03-13T01:16:25;99017.50;;;2.95;93.95
75681;BME280;64294;49.176;16.626;2023-03-13T01:18:53;99005.16;;;2.96;93.85
75681;BME280;64294;49.176;16.626;2023-03-13T01:21:20;99004.94;;;2.99;93.52
75681;BME280;64294;49.176;16.626;2023-03-13T01:23:47;99001.69;;;3.01;93.17
75681;BME280;64294;49.176;16.626;2023-03-13T01:26:13;99002.22;;;3.11;93.90
75681;BME280;64294;49.176;16.626;2023-03-13T01:28:39;98989.34;;;3.08;93.98
75681;BME280;64294;49.176;16.626;2023-03-13T01:31:18;98989.63;;;3.10;94.52
75681;BME280;64294;49.176;16.626;2023-03-13T01:33:46;98992.63;;;3.06;94.03
75681;BME280;64294;49.176;16.626;2023-03-13T01:36:12;98989.56;;;3.04;93.87
75681;BME280;64294;49.176;16.626;2023-03-13T01:38:38;98980.22;;;3.01;94.52
75681;BME280;64294;49.176;16.626;2023-03-13T01:41:04;98985.72;;;2.96;94.11
75681;BME280;64294;49.176;16.626;2023-03-13T01:43:33;98974.84;;;2.92;94.59
75681;BME280;64294;49.176;16.626;2023-03-13T01:46:21;98966.47;;;2.87;95.09
75681;BME280;64294;49.176;16.626;2023-03-13T01:51:56;98962.16;;;2.80;95.38
75681;BME280;64294;49.176;16.626;2023-03-13T01:54:26;98965.41;;;2.79;95.40
75681;BME280;64294;49.176;16.626;2023-03-13T01:57:01;98961.09;;;2.78;95.19
75681;BME280;64294;49.176;16.626;2023-03-13T02:00:00;98959.81;;;2.73;95.56
75681;BME280;64294;49.176;16.626;2023-03-13T02:02:29;98958.56;;;2.74;95.27
75681;BME280;64294;49.176;16.626;2023-03-13T02:04:58;98960.56;;;2.73;95.47
75681;BME280;64294;49.176;16.626;2023-03-13T02:07:30;98969.16;;;2.76;95.78
75681;BME280;64294;49.176;16.626;2023-03-13T02:09:57;98970.41;;;2.74;95.90
75681;BME280;64294;49.176;16.626;2023-03-13T02:12:29;98961.56;;;2.70;95.91
75681;BME280;64294;49.176;16.626;2023-03-13T02:14:57;98957.53;;;2.71;95.98
75681;BME280;64294;49.176;16.626;2023-03-13T02:17:24;98965.06;;;2.65;95.69
75681;BME280;64294;49.176;16.626;2023-03-13T02:19:50;98960.75;;;2.64;95.88
75681;BME280;64294;49.176;16.626;2023-03-13T02:27:30;98961.34;;;2.42;96.35
75681;BME280;64294;49.176;16.626;2023-03-13T02:29:56;98957.72;;;2.36;97.03
75681;BME280;64294;49.176;16.626;2023-03-13T02:32:22;98968.00;;;2.30;97.06
75681;BME280;64294;49.176;16.626;2023-03-13T02:34:52;98965.19;;;2.25;97.23
75681;BME280;64294;49.176;16.626;2023-03-13T02:37:19;98972.66;;;2.19;97.51
75681;BME280;64294;49.176;16.626;2023-03-13T02:39:47;98992.34;;;2.21;97.69
75681;BME280;64294;49.176;16.626;2023-03-13T02:42:16;98981.25;;;2.21;98.04
75681;BME280;64294;49.176;16.626;2023-03-13T02:44:45;98971.16;;;2.18;98.76
75681;BME280;64294;49.176;16.626;2023-03-13T02:47:11;98968.09;;;2.16;99.86
75681;BME280;64294;49.176;16.626;2023-03-13T02:49:37;98964.09;;;2.17;99.17
75681;BME280;64294;49.176;16.626;2023-03-13T02:52:16;98970.16;;;2.21;98.63
75681;BME280;64294;49.176;16.626;2023-03-13T02:54:46;98971.81;;;2.33;99.59
75681;BME280;64294;49.176;16.626;2023-03-13T02:57:15;98979.69;;;2.40;98.61
75681;BME280;64294;49.176;16.626;2023-03-13T02:59:40;98974.25;;;2.51;98.26
75681;BME280;64294;49.176;16.626;2023-03-13T03:02:05;98974.78;;;2.55;98.19
75681;BME280;64294;49.176;16.626;2023-03-13T03:04:31;98979.84;;;2.57;98.06
75681;BME280;64294;49.176;16.626;2023-03-13T03:06:56;98963.19;;;2.57;98.42
75681;BME280;64294;49.176;16.626;2023-03-13T03:09:23;98974.09;;;2.60;98.01
75681;BME280;64294;49.176;16.626;2023-03-13T03:11:48;98965.06;;;2.65;97.52
75681;BME280;64294;49.176;16.626;2023-03-13T03:14:14;98975.94;;;2.69;97.67
75681;BME280;64294;49.176;16.626;2023-03-13T03:16:39;98971.25;;;2.81;96.90
75681;BME280;64294;49.176;16.626;2023-03-13T03:19:05;98969.50;;;2.83;97.79
75681;BME280;64294;49.176;16.626;2023-03-13T03:21:31;98979.63;;;2.92;97.26
75681;BME280;64294;49.176;16.626;2023-03-13T03:23:57;98978.84;;;2.86;96.68
75681;BME280;64294;49.176;16.626;2023-03-13T03:26:23;98968.22;;;2.84;96.79
75681;BME280;64294;49.176;16.626;2023-03-13T03:28:48;98973.28;;;2.86;97.22
75681;BME280;64294;49.176;16.626;2023-03-13T03:31:14;98977.59;;;2.87;97.12
75681;BME280;64294;49.176;16.626;2023-03-13T03:33:40;98988.72;;;2.92;96.95
75681;BME280;64294;49.176;16.626;2023-03-13T03:36:09;98980.97;;;3.02;97.00
75681;BME280;64294;49.176;16.626;2023-03-13T03:38:35;98973.69;;;3.04;96.91
75681;BME280;64294;49.176;16.626;2023-03-13T03:41:01;98972.69;;;3.08;97.66
75681;BME280;64294;49.176;16.626;2023-03-13T03:43:27;98974.97;;;3.09;97.53
75681;BME280;64294;49.176;16.626;2023-03-13T03:45:52;98979.78;;;3.14;97.10
75681;BME280;64294;49.176;16.626;2023-03-13T03:48:18;98977.56;;;3.18;96.88
75681;BME280;64294;49.176;16.626;2023-03-13T03:50:43;98974.28;;;3.20;97.26
75681;BME280;64294;49.176;16.626;2023-03-13T03:53:09;98978.31;;;3.19;97.08
75681;BME280;64294;49.176;16.626;2023-03-13T03:55:35;98988.19;;;3.25;96.59
75681;BME280;64294;49.176;16.626;2023-03-13T03:58:00;98980.13;;;3.27;96.54
75681;BME280;64294;49.176;16.626;2023-03-13T04:00:25;98985.19;;;3.29;96.56
75681;BME280;64294;49.176;16.626;2023-03-13T04:02:52;98987.22;;;3.28;96.69
75681;BME280;64294;49.176;16.626;2023-03-13T04:05:18;98989.53;;;3.36;96.96
75681;BME280;64294;49.176;16.626;2023-03-13T04:07:43;98988.28;;;3.37;96.36
75681;BME280;64294;49.176;16.626;2023-03-13T04:10:09;98991.59;;;3.41;95.86
75681;BME280;64294;49.176;16.626;2023-03-13T04:12:35;98986.03;;;3.41;96.13
75681;BME280;64294;49.176;16.626;2023-03-13T04:15:00;98994.38;;;3.41;96.85
75681;BME280;64294;49.176;16.626;2023-03-13T04:17:26;98989.31;;;3.39;96.78
75681;BME280;64294;49.176;16.626;2023-03-13T04:19:51;98985.00;;;3.38;96.78
75681;BME280;64294;49.176;16.626;2023-03-13T04:22:17;98977.69;;;3.41;96.48
75681;BME280;64294;49.176;16.626;2023-03-13T04:24:42;98974.16;;;3.40;96.63
75681;BME280;64294;49.176;16.626;2023-03-13T04:27:08;98975.19;;;3.43;96.51
75681;BME280;64294;49.176;16.626;2023-03-13T04:29:33;98976.47;;;3.47;96.43
75681;BME280;64294;49.176;16.626;2023-03-13T04:31:59;98972.94;;;3.52;96.46
75681;BME280;64294;49.176;16.626;2023-03-13T04:34:25;98966.63;;;3.52;96.59
75681;BME280;64294;49.176;16.626;2023-03-13T04:36:50;98966.69;;;3.57;96.43
75681;BME280;64294;49.176;16.626;2023-03-13T04:39:16;98957.59;;;3.57;96.08
75681;BME280;64294;49.176;16.626;2023-03-13T04:41:41;98961.34;;;3.54;96.58
75681;BME280;64294;49.176;16.626;2023-03-13T04:44:06;98953.03;;;3.54;96.57
75681;BME280;64294;49.176;16.626;2023-03-13T04:46:32;98954.53;;;3.55;96.53
75681;BME280;64294;49.176;16.626;2023-03-13T04:48:57;98962.31;;;3.45;97.24
75681;BME280;64294;49.176;16.626;2023-03-13T04:51:23;98951.78;;;3.60;96.73
75681;BME280;64294;49.176;16.626;2023-03-13T04:53:48;98951.53;;;3.64;96.32
75681;BME280;64294;49.176;16.626;2023-03-13T04:56:21;98958.63;;;3.65;96.49
75681;BME280;64294;49.176;16.626;2023-03-13T04:58:47;98958.41;;;3.74;96.25
75681;BME280;64294;49.176;16.626;2023-03-13T05:01:13;98953.56;;;3.69;97.12
75681;BME280;64294;49.176;16.626;2023-03-13T05:03:38;98956.09;;;3.67;97.00
75681;BME280;64294;49.176;16.626;2023-03-13T05:06:04;98951.53;;;3.58;97.76
75681;BME280;64294;49.176;16.626;2023-03-13T05:08:29;98943.25;;;3.75;97.33
75681;BME280;64294;49.176;16.626;2023-03-13T05:10:54;98951.59;;;3.75;97.37
75681;BME280;64294;49.176;16.626;2023-03-13T05:13:20;98948.56;;;3.73;98.14
75681;BME280;64294;49.176;16.626;2023-03-13T05:15:45;98950.34;;;3.82;97.46
75681;BME280;64294;49.176;16.626;2023-03-13T05:18:11;98949.56;;;3.76;97.85
75681;BME280;64294;49.176;16.626;2023-03-13T05:20:37;98957.88;;;3.70;97.93
75681;BME280;64294;49.176;16.626;2023-03-13T05:23:02;98951.81;;;3.72;98.37
75681;BME280;64294;49.176;16.626;2023-03-13T05:25:28;98945.03;;;3.73;98.17
75681;BME280;64294;49.176;16.626;2023-03-13T05:27:53;98945.81;;;3.84;97.52
75681;BME280;64294;49.176;16.626;2023-03-13T05:30:18;98950.34;;;3.87;97.47
75681;BME280;64294;49.176;16.626;2023-03-13T05:32:44;98943.53;;;3.88;97.23
75681;BME280;64294;49.176;16.626;2023-03-13T05:35:09;98937.22;;;3.88;97.58
75681;BME280;64294;49.176;16.626;2023-03-13T05:37:35;98945.34;;;3.97;97.21
75681;BME280;64294;49.176;16.626;2023-03-13T05:40:00;98941.56;;;4.06;97.36
75681;BME280;64294;49.176;16.626;2023-03-13T05:42:26;98941.34;;;4.15;97.11
75681;BME280;64294;49.176;16.626;2023-03-13T05:44:52;98930.72;;;4.19;96.71
75681;BME280;64294;49.176;16.626;2023-03-13T05:47:17;98945.44;;;4.31;95.95
75681;BME280;64294;49.176;16.626;2023-03-13T05:49:43;98940.63;;;4.42;96.05
75681;BME280;64294;49.176;16.626;2023-03-13T05:52:08;98945.94;;;4.51;94.93
75681;BME280;64294;49.176;16.626;2023-03-13T05:54:33;98941.41;;;4.60;93.99
75681;BME280;64294;49.176;16.626;2023-03-13T05:56:59;98941.16;;;4.69;94.42
75681;BME280;64294;49.176;16.626;2023-03-13T05:59:24;98936.59;;;4.71;94.02
75681;BME280;64294;49.176;16.626;2023-03-13T06:01:50;98941.13;;;4.80;93.70
75681;BME280;64294;49.176;16.626;2023-03-13T06:04:15;98926.19;;;4.94;92.46
75681;BME280;64294;49.176;16.626;2023-03-13T06:06:40;98931.25;;;5.01;92.21
75681;BME280;64294;49.176;16.626;2023-03-13T06:09:06;98925.41;;;5.10;91.74
75681;BME280;64294;49.176;16.626;2023-03-13T06:11:31;98930.22;;;5.15;91.79
75681;BME280;64294;49.176;16.626;2023-03-13T06:13:57;98932.25;;;5.21;92.00
75681;BME280;64294;49.176;16.626;2023-03-13T06:16:22;98929.69;;;5.28;91.19
75681;BME280;64294;49.176;16.626;2023-03-13T06:18:48;98933.44;;;5.42;90.74
75681;BME280;64294;49.176;16.626;2023-03-13T06:21:13;98932.94;;;5.43;90.54
75681;BME280;64294;49.176;16.626;2023-03-13T06:23:39;98926.56;;;5.60;89.60
75681;BME280;64294;49.176;16.626;2023-03-13T06:26:04;98928.25;;;5.80;88.67
75681;BME280;64294;49.176;16.626;2023-03-13T06:28:30;98919.78;;;6.02;88.09
75681;BME280;64294;49.176;16.626;2023-03-13T06:31:00;98919.97;;;6.15;86.98
75681;BME280;64294;49.176;16.626;2023-03-13T06:33:25;98913.66;;;6.45;86.25
75681;BME280;64294;49.176;16.626;2023-03-13T06:35:51;98909.91;;;6.72;85.37
75681;BME280;64294;49.176;16.626;2023-03-13T06:38:16;98905.06;;;6.73;85.20
75681;BME280;64294;49.176;16.626;2023-03-13T06:40:42;98902.13;;;6.89;84.63
75681;BME280;64294;49.176;16.626;2023-03-13T06:43:07;98906.78;;;7.06;83.33
75681;BME280;64294;49.176;16.626;2023-03-13T06:45:34;98903.78;;;7.28;83.28
75681;BME280;64294;49.176;16.626;2023-03-13T06:48:00;98899.53;;;7.65;81.74
75681;BME280;64294;49.176;16.626;2023-03-13T06:50:25;98888.72;;;7.74;81.06
75681;BME280;64294;49.176;16.626;2023-03-13T06:52:53;98886.78;;;7.88;80.85
75681;BME280;64294;49.176;16.626;2023-03-13T06:55:19;98893.25;;;7.96;79.82
75681;BME280;64294;49.176;16.626;2023-03-13T06:57:49;98886.59;;;8.37;78.33
75681;BME280;64294;49.176;16.626;2023-03-13T07:00:14;98886.41;;;8.48;77.81
75681;BME280;64294;49.176;16.626;2023-03-13T07:02:40;98879.75;;;9.09;75.16
75681;BME280;64294;49.176;16.626;2023-03-13T07:05:06;98887.63;;;9.64;72.74
75681;BME280;64294;49.176;16.626;2023-03-13T07:07:32;98884.59;;;10.22;70.53
75681;BME280;64294;49.176;16.626;2023-03-13T07:10:01;98877.66;;;11.07;67.29
75681;BME280;64294;49.176;16.626;2023-03-13T07:12:27;98883.47;;;10.80;67.71
75681;BME280;64294;49.176;16.626;2023-03-13T07:14:53;98887.03;;;10.60;68.20
75681;BME280;64294;49.176;16.626;2023-03-13T07:17:18;98883.69;;;9.93;70.54
75681;BME280;64294;49.176;16.626;2023-03-13T07:19:44;98881.69;;;10.15;70.28
75681;BME280;64294;49.176;16.626;2023-03-13T07:22:09;98886.56;;;9.67;71.16
75681;BME280;64294;49.176;16.626;2023-03-13T07:24:34;98886.78;;;9.43;72.78
75681;BME280;64294;49.176;16.626;2023-03-13T07:27:00;98880.09;;;9.32;74.04
75681;BME280;64294;49.176;16.626;2023-03-13T07:29:25;98883.00;;;9.14;74.12
75681;BME280;64294;49.176;16.626;2023-03-13T07:31:51;98879.63;;;8.89;75.63
75681;BME280;64294;49.176;16.626;2023-03-13T07:34:16;98875.53;;;8.90;75.07
75681;BME280;64294;49.176;16.626;2023-03-13T07:36:42;98868.88;;;8.93;75.60
75681;BME280;64294;49.176;16.626;2023-03-13T07:39:08;98869.44;;;8.72;76.51
75681;BME280;64294;49.176;16.626;2023-03-13T07:41:33;98868.16;;;8.60;76.70
75681;BME280;64294;49.176;16.626;2023-03-13T07:43:59;98865.78;;;8.64;76.79
75681;BME280;64294;49.176;16.626;2023-03-13T07:46:24;98861.72;;;8.78;76.42
75681;BME280;64294;49.176;16.626;2023-03-13T07:48:50;98869.81;;;8.82;76.38
75681;BME280;64294;49.176;16.626;2023-03-13T07:51:22;98873.50;;;9.03;75.48
75681;BME280;64294;49.176;16.626;2023-03-13T07:53:48;98868.88;;;9.32;75.34
75681;BME280;64294;49.176;16.626;2023-03-13T07:56:17;98866.03;;;9.59;73.28
75681;BME280;64294;49.176;16.626;2023-03-13T07:58:43;98874.38;;;9.98;72.26
75681;BME280;64294;49.176;16.626;2023-03-13T08:03:44;98869.22;;;11.35;67.03
75681;BME280;64294;49.176;16.626;2023-03-13T08:06:12;98862.53;;;12.94;61.12
75681;BME280;64294;49.176;16.626;2023-03-13T08:08:39;98849.97;;;13.66;57.08
75681;BME280;64294;49.176;16.626;2023-03-13T08:11:09;98847.13;;;13.74;56.87
75681;BME280;64294;49.176;16.626;2023-03-13T08:13:36;98862.72;;;12.58;59.83
75681;BME280;64294;49.176;16.626;2023-03-13T08:18:33;98856.69;;;12.54;60.79
75681;BME280;64294;49.176;16.626;2023-03-13T08:21:03;98843.69;;;15.74;51.08
75681;BME280;64294;49.176;16.626;2023-03-13T08:23:30;98853.22;;;16.77;46.28
75681;BME280;64294;49.176;16.626;2023-03-13T08:26:04;98844.66;;;17.14;44.57
75681;BME280;64294;49.176;16.626;2023-03-13T08:28:30;98845.38;;;16.04;46.72
75681;BME280;64294;49.176;16.626;2023-03-13T08:30:57;98841.72;;;15.94;47.84
75681;BME280;64294;49.176;16.626;2023-03-13T08:33:22;98844.59;;;15.60;48.33
75681;BME280;64294;49.176;16.626;2023-03-13T08:35:48;98835.56;;;15.19;49.14
75681;BME280;64294;49.176;16.626;2023-03-13T08:38:13;98845.25;;;15.16;49.67
75681;BME280;64294;49.176;16.626;2023-03-13T08:40:38;98848.69;;;14.65;50.76
75681;BME280;64294;49.176;16.626;2023-03-13T08:43:04;98837.91;;;14.46;52.04
75681;BME280;64294;49.176;16.626;2023-03-13T08:45:29;98826.88;;;13.52;54.47
75681;BME280;64294;49.176;16.626;2023-03-13T08:47:54;98828.31;;;12.37;58.40
75681;BME280;64294;49.176;16.626;2023-03-13T08:50:20;98855.00;;;12.82;57.21
75681;BME280;64294;49.176;16.626;2023-03-13T08:52:45;98842.31;;;13.51;55.23
75681;BME280;64294;49.176;16.626;2023-03-13T08:55:11;98834.19;;;14.36;52.60
75681;BME280;64294;49.176;16.626;2023-03-13T08:57:36;98824.28;;;15.71;48.85
75681;BME280;64294;49.176;16.626;2023-03-13T09:00:02;98816.25;;;18.01;43.01
75681;BME280;64294;49.176;16.626;2023-03-13T09:02:30;98815.28;;;19.42;39.13
75681;BME280;64294;49.176;16.626;2023-03-13T09:04:55;98814.75;;;20.33;37.25
75681;BME280;64294;49.176;16.626;2023-03-13T09:07:21;98817.53;;;19.00;39.07
75681;BME280;64294;49.176;16.626;2023-03-13T09:09:46;98823.56;;;17.07;43.12
75681;BME280;64294;49.176;16.626;2023-03-13T09:12:12;98819.50;;;16.54;44.70
75681;BME280;64294;49.176;16.626;2023-03-13T09:14:37;98805.94;;;15.37;47.08
75681;BME280;64294;49.176;16.626;2023-03-13T09:17:02;98803.81;;;15.63;47.49
75681;BME280;64294;49.176;16.626;2023-03-13T09:19:32;98797.88;;;14.57;49.95
75681;BME280;64294;49.176;16.626;2023-03-13T09:21:57;98802.31;;;16.16;46.67
75681;BME280;64294;49.176;16.626;2023-03-13T09:24:23;98804.28;;;15.34;48.50
75681;BME280;64294;49.176;16.626;2023-03-13T09:26:48;98803.66;;;16.15;46.20
75681;BME280;64294;49.176;16.626;2023-03-13T09:29:13;98795.31;;;15.63;47.45
75681;BME280;64294;49.176;16.626;2023-03-13T09:31:39;98787.44;;;15.54;47.23
75681;BME280;64294;49.176;16.626;2023-03-13T09:34:05;98797.03;;;15.06;48.91
75681;BME280;64294;49.176;16.626;2023-03-13T09:36:31;98797.38;;;15.45;46.96
75681;BME280;64294;49.176;16.626;2023-03-13T09:38:58;98796.53;;;15.18;47.60
75681;BME280;64294;49.176;16.626;2023-03-13T09:44:06;98753.84;;;13.89;50.57
75681;BME280;64294;49.176;16.626;2023-03-13T09:46:57;98742.53;;;14.46;49.58
75681;BME280;64294;49.176;16.626;2023-03-13T09:49:34;98748.19;;;13.89;50.96
75681;BME280;64294;49.176;16.626;2023-03-13T09:52:17;98743.25;;;13.64;51.92
75681;BME280;64294;49.176;16.626;2023-03-13T09:54:53;98721.25;;;13.63;52.39
75681;BME280;64294;49.176;16.626;2023-03-13T09:59:57;98740.28;;;14.45;50.32
75681;BME280;64294;49.176;16.626;2023-03-13T10:02:31;98729.75;;;14.13;50.28
75681;BME280;64294;49.176;16.626;2023-03-13T10:07:40;98718.78;;;13.92;51.00
75681;BME280;64294;49.176;16.626;2023-03-13T10:10:17;98711.88;;;13.85;50.94
75681;BME280;64294;49.176;16.626;2023-03-13T10:12:48;98694.25;;;13.77;51.74
75681;BME280;64294;49.176;16.626;2023-03-13T10:17:54;98696.19;;;13.67;50.06
75681;BME280;64294;49.176;16.626;2023-03-13T10:20:26;98700.06;;;13.47;50.57
75681;BME280;64294;49.176;16.626;2023-03-13T10:23:20;98679.38;;;13.44;50.19
75681;BME280;64294;49.176;16.626;2023-03-13T10:25:49;98696.66;;;13.48;50.10
75681;BME280;64294;49.176;16.626;2023-03-13T10:28:16;98685.22;;;13.71;49.43
75681;BME280;64294;49.176;16.626;2023-03-13T10:31:31;98673.59;;;13.34;49.54
75681;BME280;64294;49.176;16.626;2023-03-13T10:34:09;98685.75;;;13.04;50.37
75681;BME280;64294;49.176;16.626;2023-03-13T10:36:43;98682.63;;;12.85;53.05
75681;BME280;64294;49.176;16.626;2023-03-13T10:39:21;98686.94;;;12.79;52.98
75681;BME280;64294;49.176;16.626;2023-03-13T10:41:48;98696.84;;;13.02;54.79
75681;BME280;64294;49.176;16.626;2023-03-13T10:44:20;98688.00;;;13.06;52.38
75681;BME280;64294;49.176;16.626;2023-03-13T10:46:47;98681.00;;;13.55;53.29
75681;BME280;64294;49.176;16.626;2023-03-13T10:54:22;98697.41;;;14.73;48.17
75681;BME280;64294;49.176;16.626;2023-03-13T10:56:49;98673.75;;;15.13;47.67
75681;BME280;64294;49.176;16.626;2023-03-13T10:59:25;98662.78;;;15.00;47.42
75681;BME280;64294;49.176;16.626;2023-03-13T11:01:53;98653.03;;;15.82;46.59
75681;BME280;64294;49.176;16.626;2023-03-13T11:04:30;98647.78;;;16.34;43.71
75681;BME280;64294;49.176;16.626;2023-03-13T11:07:14;98670.56;;;15.70;44.64
75681;BME280;64294;49.176;16.626;2023-03-13T11:09:40;98659.59;;;16.50;42.78
75681;BME280;64294;49.176;16.626;2023-03-13T11:12:13;98657.47;;;16.21;42.37
75681;BME280;64294;49.176;16.626;2023-03-13T11:14:43;98668.47;;;15.71;44.29
75681;BME280;64294;49.176;16.626;2023-03-13T11:17:18;98649.22;;;14.98;45.84
75681;BME280;64294;49.176;16.626;2023-03-13T11:19:58;98649.41;;;14.23;46.61
75681;BME280;64294;49.176;16.626;2023-03-13T11:25:01;98645.47;;;13.12;49.69
75681;BME280;64294;49.176;16.626;2023-03-13T11:27:54;98627.59;;;13.49;48.91
75681;BME280;64294;49.176;16.626;2023-03-13T11:32:54;98624.41;;;13.78;47.72
75681;BME280;64294;49.176;16.626;2023-03-13T11:38:40;98618.34;;;13.81;48.42
75681;BME280;64294;49.176;16.626;2023-03-13T11:41:36;98614.63;;;13.46;48.89
75681;BME280;64294;49.176;16.626;2023-03-13T11:47:15;98613.28;;;13.22;50.02
75681;BME280;64294;49.176;16.626;2023-03-13T11:56:00;98615.88;;;12.80;52.16
75681;BME280;64294;49.176;16.626;2023-03-13T12:01:53;98605.47;;;12.50;52.56
75681;BME280;64294;49.176;16.626;2023-03-13T12:04:44;98614.19;;;12.29;53.09
75681;BME280;64294;49.176;16.626;2023-03-13T12:07:26;98602.16;;;12.29;53.43
75681;BME280;64294;49.176;16.626;2023-03-13T12:09:59;98581.69;;;12.21;52.76
75681;BME280;64294;49.176;16.626;2023-03-13T12:15:18;98590.31;;;12.23;55.94
75681;BME280;64294;49.176;16.626;2023-03-13T12:17:52;98593.53;;;12.19;53.44
75681;BME280;64294;49.176;16.626;2023-03-13T12:20:26;98578.50;;;12.17;53.48
75681;BME280;64294;49.176;16.626;2023-03-13T12:25:25;98571.53;;;12.25;54.18
75681;BME280;64294;49.176;16.626;2023-03-13T12:28:30;98585.44;;;12.31;53.82
75681;BME280;64294;49.176;16.626;2023-03-13T12:31:17;98559.50;;;12.32;53.98
75681;BME280;64294;49.176;16.626;2023-03-13T12:34:21;98550.69;;;12.28;54.76
75681;BME280;64294;49.176;16.626;2023-03-13T12:37:10;98550.00;;;12.60;54.64
75681;BME280;64294;49.176;16.626;2023-03-13T12:39:45;98555.31;;;12.49;55.26
75681;BME280;64294;49.176;16.626;2023-03-13T12:45:01;98551.94;;;12.42;54.78
75681;BME280;64294;49.176;16.626;2023-03-13T12:50:24;98558.16;;;12.41;54.78
75681;BME280;64294;49.176;16.626;2023-03-13T12:53:19;98540.63;;;12.58;54.88
75681;BME280;64294;49.176;16.626;2023-03-13T12:58:40;98561.25;;;13.00;53.98
75681;BME280;64294;49.176;16.626;2023-03-13T13:01:13;98570.50;;;13.33;53.26
75681;BME280;64294;49.176;16.626;2023-03-13T13:04:03;98557.09;;;13.09;54.02
75681;BME280;64294;49.176;16.626;2023-03-13T13:06:50;98555.94;;;13.12;53.59
75681;BME280;64294;49.176;16.626;2023-03-13T13:09:21;98560.81;;;12.79;54.10
75681;BME280;64294;49.176;16.626;2023-03-13T13:11:48;98557.78;;;13.25;53.49
75681;BME280;64294;49.176;16.626;2023-03-13T13:14:36;98577.28;;;12.50;54.78
75681;BME280;64294;49.176;16.626;2023-03-13T13:17:15;98557.78;;;12.37;55.98
75681;BME280;64294;49.176;16.626;2023-03-13T13:19:45;98578.44;;;12.39;55.86
75681;BME280;64294;49.176;16.626;2023-03-13T13:25:33;98553.78;;;12.55;55.80
75681;BME280;64294;49.176;16.626;2023-03-13T13:30:47;98547.56;;;12.57;54.92
75681;BME280;64294;49.176;16.626;2023-03-13T13:38:37;98533.94;;;12.78;54.96
75681;BME280;64294;49.176;16.626;2023-03-13T13:43:46;98521.22;;;12.62;54.97
75681;BME280;64294;49.176;16.626;2023-03-13T13:46:51;98514.38;;;12.80;54.12
75681;BME280;64294;49.176;16.626;2023-03-13T13:49:29;98520.06;;;12.72;53.73
75681;BME280;64294;49.176;16.626;2023-03-13T13:57:09;98498.44;;;12.35;55.13
75681;BME280;64294;49.176;16.626;2023-03-13T13:59:43;98495.53;;;12.02;55.98
75681;BME280;64294;49.176;16.626;2023-03-13T14:02:17;98482.78;;;12.01;56.27
75681;BME280;64294;49.176;16.626;2023-03-13T14:05:03;98491.00;;;12.07;55.81
75681;BME280;64294;49.176;16.626;2023-03-13T14:13:21;98482.28;;;12.35;60.70
75681;BME280;64294;49.176;16.626;2023-03-13T14:15:48;98486.03;;;12.38;56.23
75681;BME280;64294;49.176;16.626;2023-03-13T14:18:23;98477.34;;;12.43;56.12
75681;BME280;64294;49.176;16.626;2023-03-13T14:21:00;98477.50;;;12.53;55.30
75681;BME280;64294;49.176;16.626;2023-03-13T14:23:43;98473.75;;;12.51;54.68
75681;BME280;64294;49.176;16.626;2023-03-13T14:28:45;98475.13;;;12.74;53.94
75681;BME280;64294;49.176;16.626;2023-03-13T14:31:33;98468.44;;;12.62;52.99
75681;BME280;64294;49.176;16.626;2023-03-13T14:34:02;98470.88;;;12.66;52.14
75681;BME280;64294;49.176;16.626;2023-03-13T14:36:28;98475.38;;;12.61;51.05